sensor_id;sensor_type;location;lat;lon;timestamp;P1;durP1;ratioP1;P2;durP2;ratioP2
9934;SDS011;5006;41.828;23.478;2023-03-01T00:00:10;2.00;;;1.75;;
9934;SDS011;5006;41.828;23.478;2023-03-01T00:01:20;1.52;;;1.30;;
9934;SDS011;5006;41.828;23.478;2023-03-01T00:02:26;1.83;;;1.30;;
9934;SDS011;5006;41.828;23.478;2023-03-01T00:03:31;1.70;;;1.10;;
9934;SDS011;5006;41.828;23.478;2023-03-01T00:04:36;0.95;;;0.90;;
9934;SDS011;5006;41.828;23.478;2023-03-01T00:05:43;2.25;;;1.10;;
9934;SDS011;5006;41.828;23.478;2023-03-01T00:06:48;1.05;;;0.90;;
9934;SDS011;5006;41.828;23.478;2023-03-01T00:07:53;1.48;;;1.20;;
9934;SDS011;5006;41.828;23.478;2023-03-01T00:08:58;1.75;;;1.00;;
9934;SDS011;5006;41.828;23.478;2023-03-01T00:10:05;1.30;;;1.00;;
9934;SDS011;5006;41.828;23.478;2023-03-01T00:11:12;1.10;;;1.00;;
9934;SDS011;5006;41.828;23.478;2023-03-01T00:12:19;1.15;;;0.90;;
9934;SDS011;5006;41.828;23.478;2023-03-01T00:13:24;1.20;;;1.10;;
9934;SDS011;5006;41.828;23.478;2023-03-01T00:14:31;1.90;;;1.10;;
9934;SDS011;5006;41.828;23.478;2023-03-01T00:15:40;1.17;;;0.70;;
9934;SDS011;5006;41.828;23.478;2023-03-01T00:16:46;1.35;;;0.77;;
9934;SDS011;5006;41.828;23.478;2023-03-01T00:17:51;0.70;;;0.70;;
9934;SDS011;5006;41.828;23.478;2023-03-01T00:18:56;0.80;;;0.73;;
9934;SDS011;5006;41.828;23.478;2023-03-01T00:20:02;0.93;;;0.60;;
9934;SDS011;5006;41.828;23.478;2023-03-01T00:21:09;1.23;;;0.88;;
9934;SDS011;5006;41.828;23.478;2023-03-01T00:22:14;2.25;;;0.98;;
9934;SDS011;5006;41.828;23.478;2023-03-01T00:23:19;0.85;;;0.80;;
9934;SDS011;5006;41.828;23.478;2023-03-01T00:24:24;3.22;;;2.80;;
9934;SDS011;5006;41.828;23.478;2023-03-01T00:25:30;1.83;;;1.63;;
9934;SDS011;5006;41.828;23.478;2023-03-01T00:26:34;2.17;;;2.05;;
9934;SDS011;5006;41.828;23.478;2023-03-01T00:27:40;3.13;;;2.85;;
9934;SDS011;5006;41.828;23.478;2023-03-01T00:28:45;3.30;;;1.80;;
9934;SDS011;5006;41.828;23.478;2023-03-01T00:29:53;1.77;;;1.67;;
9934;SDS011;5006;41.828;23.478;2023-03-01T00:31:02;3.10;;;2.35;;
9934;SDS011;5006;41.828;23.478;2023-03-01T00:32:07;2.58;;;2.15;;
9934;SDS011;5006;41.828;23.478;2023-03-01T00:33:13;3.58;;;2.50;;
9934;SDS011;5006;41.828;23.478;2023-03-01T00:34:18;3.55;;;3.25;;
9934;SDS011;5006;41.828;23.478;2023-03-01T00:35:24;3.92;;;3.53;;
9934;SDS011;5006;41.828;23.478;2023-03-01T00:36:29;4.55;;;3.67;;
9934;SDS011;5006;41.828;23.478;2023-03-01T00:37:36;7.10;;;4.88;;
9934;SDS011;5006;41.828;23.478;2023-03-01T00:38:41;5.03;;;4.53;;
9934;SDS011;5006;41.828;23.478;2023-03-01T00:39:48;4.97;;;4.47;;
9934;SDS011;5006;41.828;23.478;2023-03-01T00:40:53;4.40;;;3.88;;
9934;SDS011;5006;41.828;23.478;2023-03-01T00:41:59;6.75;;;4.68;;
9934;SDS011;5006;41.828;23.478;2023-03-01T00:43:04;4.90;;;4.13;;
9934;SDS011;5006;41.828;23.478;2023-03-01T00:44:09;6.60;;;3.50;;
9934;SDS011;5006;41.828;23.478;2023-03-01T00:45:16;3.83;;;3.03;;
9934;SDS011;5006;41.828;23.478;2023-03-01T00:46:22;3.78;;;3.30;;
9934;SDS011;5006;41.828;23.478;2023-03-01T00:47:28;3.85;;;2.80;;
9934;SDS011;5006;41.828;23.478;2023-03-01T00:48:34;3.17;;;2.88;;
9934;SDS011;5006;41.828;23.478;2023-03-01T00:49:39;3.55;;;2.92;;
9934;SDS011;5006;41.828;23.478;2023-03-01T00:50:45;3.08;;;2.70;;
9934;SDS011;5006;41.828;23.478;2023-03-01T00:51:50;3.28;;;2.83;;
9934;SDS011;5006;41.828;23.478;2023-03-01T00:52:56;1.90;;;1.70;;
9934;SDS011;5006;41.828;23.478;2023-03-01T00:54:01;2.22;;;1.80;;
9934;SDS011;5006;41.828;23.478;2023-03-01T00:55:08;2.20;;;1.95;;
9934;SDS011;5006;41.828;23.478;2023-03-01T00:56:14;2.05;;;1.85;;
9934;SDS011;5006;41.828;23.478;2023-03-01T00:57:21;2.10;;;1.90;;
9934;SDS011;5006;41.828;23.478;2023-03-01T00:58:26;2.17;;;1.73;;
9934;SDS011;5006;41.828;23.478;2023-03-01T00:59:32;1.63;;;1.52;;
9934;SDS011;5006;41.828;23.478;2023-03-01T01:00:40;2.45;;;1.60;;
9934;SDS011;5006;41.828;23.478;2023-03-01T01:01:45;2.03;;;1.65;;
9934;SDS011;5006;41.828;23.478;2023-03-01T01:02:51;1.65;;;1.40;;
9934;SDS011;5006;41.828;23.478;2023-03-01T01:03:56;1.42;;;1.30;;
9934;SDS011;5006;41.828;23.478;2023-03-01T01:05:02;2.08;;;1.40;;
9934;SDS011;5006;41.828;23.478;2023-03-01T01:06:12;1.45;;;1.35;;
9934;SDS011;5006;41.828;23.478;2023-03-01T01:07:18;2.25;;;1.40;;
9934;SDS011;5006;41.828;23.478;2023-03-01T01:08:24;1.52;;;1.30;;
9934;SDS011;5006;41.828;23.478;2023-03-01T01:09:30;1.65;;;1.27;;
9934;SDS011;5006;41.828;23.478;2023-03-01T01:10:35;1.20;;;1.10;;
9934;SDS011;5006;41.828;23.478;2023-03-01T01:11:40;1.10;;;1.00;;
9934;SDS011;5006;41.828;23.478;2023-03-01T01:12:45;2.17;;;1.48;;
9934;SDS011;5006;41.828;23.478;2023-03-01T01:13:51;2.88;;;1.50;;
9934;SDS011;5006;41.828;23.478;2023-03-01T01:14:57;2.63;;;1.50;;
9934;SDS011;5006;41.828;23.478;2023-03-01T01:16:04;1.73;;;1.23;;
9934;SDS011;5006;41.828;23.478;2023-03-01T01:17:10;1.58;;;1.40;;
9934;SDS011;5006;41.828;23.478;2023-03-01T01:18:15;2.08;;;1.90;;
9934;SDS011;5006;41.828;23.478;2023-03-01T01:19:20;2.63;;;2.25;;
9934;SDS011;5006;41.828;23.478;2023-03-01T01:20:27;2.40;;;2.20;;
9934;SDS011;5006;41.828;23.478;2023-03-01T01:21:31;2.50;;;2.30;;
9934;SDS011;5006;41.828;23.478;2023-03-01T01:22:37;3.00;;;2.80;;
9934;SDS011;5006;41.828;23.478;2023-03-01T01:23:42;4.00;;;3.60;;
9934;SDS011;5006;41.828;23.478;2023-03-01T01:24:49;4.45;;;4.03;;
9934;SDS011;5006;41.828;23.478;2023-03-01T01:25:54;3.95;;;3.65;;
9934;SDS011;5006;41.828;23.478;2023-03-01T01:27:00;4.03;;;2.88;;
9934;SDS011;5006;41.828;23.478;2023-03-01T01:28:05;3.42;;;3.03;;
9934;SDS011;5006;41.828;23.478;2023-03-01T01:29:10;3.50;;;3.20;;
9934;SDS011;5006;41.828;23.478;2023-03-01T01:30:17;4.18;;;3.88;;
9934;SDS011;5006;41.828;23.478;2023-03-01T01:31:24;5.00;;;4.60;;
9934;SDS011;5006;41.828;23.478;2023-03-01T01:32:31;4.28;;;3.97;;
9934;SDS011;5006;41.828;23.478;2023-03-01T01:33:35;3.55;;;3.25;;
9934;SDS011;5006;41.828;23.478;2023-03-01T01:34:42;3.50;;;3.20;;
9934;SDS011;5006;41.828;23.478;2023-03-01T01:36:08;3.58;;;3.30;;
9934;SDS011;5006;41.828;23.478;2023-03-01T01:37:13;3.47;;;3.13;;
9934;SDS011;5006;41.828;23.478;2023-03-01T01:38:19;2.90;;;2.70;;
9934;SDS011;5006;41.828;23.478;2023-03-01T01:39:25;2.67;;;2.47;;
9934;SDS011;5006;41.828;23.478;2023-03-01T01:40:30;2.40;;;2.20;;
9934;SDS011;5006;41.828;23.478;2023-03-01T01:41:35;2.40;;;2.20;;
9934;SDS011;5006;41.828;23.478;2023-03-01T01:43:08;2.40;;;2.20;;
9934;SDS011;5006;41.828;23.478;2023-03-01T01:44:44;1.88;;;1.77;;
9934;SDS011;5006;41.828;23.478;2023-03-01T01:45:58;2.13;;;1.80;;
9934;SDS011;5006;41.828;23.478;2023-03-01T01:47:07;1.80;;;1.70;;
9934;SDS011;5006;41.828;23.478;2023-03-01T01:48:20;1.80;;;1.70;;
9934;SDS011;5006;41.828;23.478;2023-03-01T01:49:30;3.22;;;1.73;;
9934;SDS011;5006;41.828;23.478;2023-03-01T01:50:39;1.52;;;1.42;;
9934;SDS011;5006;41.828;23.478;2023-03-01T01:51:45;1.30;;;1.20;;
9934;SDS011;5006;41.828;23.478;2023-03-01T01:52:54;1.50;;;1.40;;
9934;SDS011;5006;41.828;23.478;2023-03-01T01:53:59;1.30;;;1.20;;
9934;SDS011;5006;41.828;23.478;2023-03-01T01:55:07;1.40;;;1.30;;
9934;SDS011;5006;41.828;23.478;2023-03-01T01:56:15;1.50;;;1.40;;
9934;SDS011;5006;41.828;23.478;2023-03-01T01:57:25;1.40;;;1.30;;
9934;SDS011;5006;41.828;23.478;2023-03-01T01:58:32;1.35;;;1.25;;
9934;SDS011;5006;41.828;23.478;2023-03-01T01:59:38;1.77;;;1.23;;
9934;SDS011;5006;41.828;23.478;2023-03-01T02:00:46;1.20;;;1.10;;
9934;SDS011;5006;41.828;23.478;2023-03-01T02:01:52;1.20;;;1.10;;
9934;SDS011;5006;41.828;23.478;2023-03-01T02:03:01;1.30;;;1.20;;
9934;SDS011;5006;41.828;23.478;2023-03-01T02:04:10;1.10;;;1.00;;
9934;SDS011;5006;41.828;23.478;2023-03-01T02:05:16;1.85;;;1.20;;
9934;SDS011;5006;41.828;23.478;2023-03-01T02:06:31;0.98;;;0.85;;
9934;SDS011;5006;41.828;23.478;2023-03-01T02:07:39;1.20;;;1.10;;
9934;SDS011;5006;41.828;23.478;2023-03-01T02:08:47;1.10;;;0.90;;
9934;SDS011;5006;41.828;23.478;2023-03-01T02:09:55;1.50;;;1.02;;
9934;SDS011;5006;41.828;23.478;2023-03-01T02:11:00;1.10;;;1.00;;
9934;SDS011;5006;41.828;23.478;2023-03-01T02:12:08;1.30;;;1.10;;
9934;SDS011;5006;41.828;23.478;2023-03-01T02:13:12;1.10;;;1.00;;
9934;SDS011;5006;41.828;23.478;2023-03-01T02:14:18;1.10;;;0.93;;
9934;SDS011;5006;41.828;23.478;2023-03-01T02:15:23;1.55;;;0.88;;
9934;SDS011;5006;41.828;23.478;2023-03-01T02:16:31;0.98;;;0.85;;
9934;SDS011;5006;41.828;23.478;2023-03-01T02:17:35;1.05;;;0.95;;
9934;SDS011;5006;41.828;23.478;2023-03-01T02:18:43;1.25;;;0.88;;
9934;SDS011;5006;41.828;23.478;2023-03-01T02:19:52;1.00;;;0.80;;
9934;SDS011;5006;41.828;23.478;2023-03-01T02:22:41;1.10;;;0.90;;
9934;SDS011;5006;41.828;23.478;2023-03-01T02:23:49;1.05;;;0.80;;
9934;SDS011;5006;41.828;23.478;2023-03-01T02:24:57;0.95;;;0.90;;
9934;SDS011;5006;41.828;23.478;2023-03-01T02:26:11;1.13;;;0.88;;
9934;SDS011;5006;41.828;23.478;2023-03-01T02:27:26;0.80;;;0.70;;
9934;SDS011;5006;41.828;23.478;2023-03-01T02:28:39;0.80;;;0.80;;
9934;SDS011;5006;41.828;23.478;2023-03-01T02:29:48;0.60;;;0.60;;
9934;SDS011;5006;41.828;23.478;2023-03-01T02:30:53;1.00;;;0.68;;
9934;SDS011;5006;41.828;23.478;2023-03-01T02:32:15;0.85;;;0.85;;
9934;SDS011;5006;41.828;23.478;2023-03-01T02:33:29;1.40;;;0.85;;
9934;SDS011;5006;41.828;23.478;2023-03-01T02:34:36;1.35;;;0.80;;
9934;SDS011;5006;41.828;23.478;2023-03-01T02:35:43;0.60;;;0.60;;
9934;SDS011;5006;41.828;23.478;2023-03-01T02:36:49;0.75;;;0.73;;
9934;SDS011;5006;41.828;23.478;2023-03-01T02:37:59;1.40;;;0.70;;
9934;SDS011;5006;41.828;23.478;2023-03-01T02:39:07;0.70;;;0.70;;
9934;SDS011;5006;41.828;23.478;2023-03-01T02:40:21;1.38;;;0.85;;
9934;SDS011;5006;41.828;23.478;2023-03-01T02:41:26;0.65;;;0.65;;
9934;SDS011;5006;41.828;23.478;2023-03-01T02:42:40;0.70;;;0.70;;
9934;SDS011;5006;41.828;23.478;2023-03-01T02:43:53;0.80;;;0.70;;
9934;SDS011;5006;41.828;23.478;2023-03-01T02:44:58;0.80;;;0.70;;
9934;SDS011;5006;41.828;23.478;2023-03-01T02:46:04;0.60;;;0.60;;
9934;SDS011;5006;41.828;23.478;2023-03-01T02:47:11;1.08;;;0.80;;
9934;SDS011;5006;41.828;23.478;2023-03-01T02:48:15;0.57;;;0.57;;
9934;SDS011;5006;41.828;23.478;2023-03-01T02:49:23;2.20;;;1.30;;
9934;SDS011;5006;41.828;23.478;2023-03-01T02:50:38;2.30;;;2.10;;
9934;SDS011;5006;41.828;23.478;2023-03-01T02:52:09;2.33;;;1.90;;
9934;SDS011;5006;41.828;23.478;2023-03-01T02:53:28;2.08;;;1.83;;
9934;SDS011;5006;41.828;23.478;2023-03-01T02:54:43;3.20;;;2.33;;
9934;SDS011;5006;41.828;23.478;2023-03-01T02:55:55;3.30;;;2.80;;
9934;SDS011;5006;41.828;23.478;2023-03-01T02:57:01;4.18;;;3.20;;
9934;SDS011;5006;41.828;23.478;2023-03-01T02:58:09;4.28;;;3.85;;
9934;SDS011;5006;41.828;23.478;2023-03-01T02:59:16;5.90;;;4.93;;
9934;SDS011;5006;41.828;23.478;2023-03-01T03:00:26;6.25;;;5.65;;
9934;SDS011;5006;41.828;23.478;2023-03-01T03:01:43;4.63;;;4.15;;
9934;SDS011;5006;41.828;23.478;2023-03-01T03:02:50;1.77;;;1.40;;
9934;SDS011;5006;41.828;23.478;2023-03-01T03:04:00;4.18;;;3.60;;
9934;SDS011;5006;41.828;23.478;2023-03-01T03:05:07;4.30;;;3.90;;
9934;SDS011;5006;41.828;23.478;2023-03-01T03:06:15;4.55;;;4.15;;
9934;SDS011;5006;41.828;23.478;2023-03-01T03:07:21;6.15;;;5.55;;
9934;SDS011;5006;41.828;23.478;2023-03-01T03:08:27;8.10;;;7.07;;
9934;SDS011;5006;41.828;23.478;2023-03-01T03:09:33;9.55;;;8.48;;
9934;SDS011;5006;41.828;23.478;2023-03-01T03:10:38;11.30;;;9.02;;
9934;SDS011;5006;41.828;23.478;2023-03-01T03:11:47;9.63;;;7.90;;
9934;SDS011;5006;41.828;23.478;2023-03-01T03:12:52;9.88;;;7.47;;
9934;SDS011;5006;41.828;23.478;2023-03-01T03:13:59;8.73;;;7.50;;
9934;SDS011;5006;41.828;23.478;2023-03-01T03:15:06;6.28;;;5.57;;
9934;SDS011;5006;41.828;23.478;2023-03-01T03:16:15;4.85;;;4.45;;
9934;SDS011;5006;41.828;23.478;2023-03-01T03:17:20;4.32;;;3.60;;
9934;SDS011;5006;41.828;23.478;2023-03-01T03:18:26;4.50;;;4.10;;
9934;SDS011;5006;41.828;23.478;2023-03-01T03:19:30;4.30;;;3.70;;
9934;SDS011;5006;41.828;23.478;2023-03-01T03:20:36;3.65;;;3.35;;
9934;SDS011;5006;41.828;23.478;2023-03-01T03:21:43;3.85;;;3.42;;
9934;SDS011;5006;41.828;23.478;2023-03-01T03:22:52;3.40;;;3.10;;
9934;SDS011;5006;41.828;23.478;2023-03-01T03:23:58;4.40;;;3.83;;
9934;SDS011;5006;41.828;23.478;2023-03-01T03:25:04;4.35;;;3.95;;
9934;SDS011;5006;41.828;23.478;2023-03-01T03:26:09;4.97;;;3.95;;
9934;SDS011;5006;41.828;23.478;2023-03-01T03:27:17;3.97;;;3.58;;
9934;SDS011;5006;41.828;23.478;2023-03-01T03:28:22;4.40;;;3.97;;
9934;SDS011;5006;41.828;23.478;2023-03-01T03:29:27;4.70;;;4.15;;
9934;SDS011;5006;41.828;23.478;2023-03-01T03:30:33;4.70;;;4.10;;
9934;SDS011;5006;41.828;23.478;2023-03-01T03:31:39;4.60;;;3.78;;
9934;SDS011;5006;41.828;23.478;2023-03-01T03:32:44;3.88;;;3.45;;
9934;SDS011;5006;41.828;23.478;2023-03-01T03:33:56;3.88;;;3.38;;
9934;SDS011;5006;41.828;23.478;2023-03-01T03:35:00;3.60;;;2.85;;
9934;SDS011;5006;41.828;23.478;2023-03-01T03:36:15;3.58;;;3.25;;
9934;SDS011;5006;41.828;23.478;2023-03-01T03:37:21;3.70;;;3.40;;
9934;SDS011;5006;41.828;23.478;2023-03-01T03:38:45;3.80;;;2.70;;
9934;SDS011;5006;41.828;23.478;2023-03-01T03:39:51;4.68;;;3.28;;
9934;SDS011;5006;41.828;23.478;2023-03-01T03:41:02;3.53;;;3.13;;
9934;SDS011;5006;41.828;23.478;2023-03-01T03:42:08;3.63;;;2.90;;
9934;SDS011;5006;41.828;23.478;2023-03-01T03:43:32;3.75;;;3.45;;
9934;SDS011;5006;41.828;23.478;2023-03-01T03:44:39;3.35;;;3.05;;
9934;SDS011;5006;41.828;23.478;2023-03-01T03:45:45;2.97;;;2.75;;
9934;SDS011;5006;41.828;23.478;2023-03-01T03:46:51;3.10;;;2.80;;
9934;SDS011;5006;41.828;23.478;2023-03-01T03:47:56;2.88;;;2.40;;
9934;SDS011;5006;41.828;23.478;2023-03-01T03:49:01;2.80;;;2.50;;
9934;SDS011;5006;41.828;23.478;2023-03-01T03:50:06;2.92;;;2.63;;
9934;SDS011;5006;41.828;23.478;2023-03-01T03:51:13;2.55;;;2.35;;
9934;SDS011;5006;41.828;23.478;2023-03-01T03:52:19;2.40;;;2.15;;
9934;SDS011;5006;41.828;23.478;2023-03-01T03:53:25;1.92;;;1.83;;
9934;SDS011;5006;41.828;23.478;2023-03-01T03:54:31;2.55;;;1.90;;
9934;SDS011;5006;41.828;23.478;2023-03-01T03:55:37;1.90;;;1.70;;
9934;SDS011;5006;41.828;23.478;2023-03-01T03:56:43;2.20;;;2.00;;
9934;SDS011;5006;41.828;23.478;2023-03-01T03:58:08;2.00;;;1.90;;
9934;SDS011;5006;41.828;23.478;2023-03-01T03:59:31;1.67;;;1.58;;
9934;SDS011;5006;41.828;23.478;2023-03-01T04:00:37;1.40;;;1.30;;
9934;SDS011;5006;41.828;23.478;2023-03-01T04:02:03;2.20;;;1.33;;
9934;SDS011;5006;41.828;23.478;2023-03-01T04:03:10;1.50;;;1.40;;
9934;SDS011;5006;41.828;23.478;2023-03-01T04:04:16;1.75;;;1.50;;
9934;SDS011;5006;41.828;23.478;2023-03-01T04:05:23;1.98;;;1.40;;
9934;SDS011;5006;41.828;23.478;2023-03-01T04:06:28;1.60;;;1.50;;
9934;SDS011;5006;41.828;23.478;2023-03-01T04:07:33;1.50;;;1.35;;
9934;SDS011;5006;41.828;23.478;2023-03-01T04:08:39;1.30;;;1.17;;
9934;SDS011;5006;41.828;23.478;2023-03-01T04:09:46;1.50;;;1.40;;
9934;SDS011;5006;41.828;23.478;2023-03-01T04:10:51;1.38;;;1.20;;
9934;SDS011;5006;41.828;23.478;2023-03-01T04:11:59;1.40;;;1.30;;
9934;SDS011;5006;41.828;23.478;2023-03-01T04:13:04;1.45;;;1.20;;
9934;SDS011;5006;41.828;23.478;2023-03-01T04:14:11;2.00;;;1.10;;
9934;SDS011;5006;41.828;23.478;2023-03-01T04:15:17;1.02;;;0.95;;
9934;SDS011;5006;41.828;23.478;2023-03-01T04:16:21;1.70;;;0.90;;
9934;SDS011;5006;41.828;23.478;2023-03-01T04:17:29;1.40;;;1.08;;
9934;SDS011;5006;41.828;23.478;2023-03-01T04:18:34;2.20;;;1.08;;
9934;SDS011;5006;41.828;23.478;2023-03-01T04:19:40;1.98;;;1.00;;
9934;SDS011;5006;41.828;23.478;2023-03-01T04:20:48;1.85;;;1.25;;
9934;SDS011;5006;41.828;23.478;2023-03-01T04:21:56;1.20;;;1.10;;
9934;SDS011;5006;41.828;23.478;2023-03-01T04:23:01;0.82;;;0.82;;
9934;SDS011;5006;41.828;23.478;2023-03-01T04:24:14;0.90;;;0.90;;
9934;SDS011;5006;41.828;23.478;2023-03-01T04:25:20;1.98;;;0.80;;
9934;SDS011;5006;41.828;23.478;2023-03-01T04:26:24;1.38;;;0.82;;
9934;SDS011;5006;41.828;23.478;2023-03-01T04:27:31;1.77;;;0.90;;
9934;SDS011;5006;41.828;23.478;2023-03-01T04:28:37;1.10;;;1.00;;
9934;SDS011;5006;41.828;23.478;2023-03-01T04:29:46;1.55;;;0.95;;
9934;SDS011;5006;41.828;23.478;2023-03-01T04:30:52;1.02;;;0.90;;
9934;SDS011;5006;41.828;23.478;2023-03-01T04:31:58;1.10;;;1.00;;
9934;SDS011;5006;41.828;23.478;2023-03-01T04:33:05;1.05;;;0.77;;
9934;SDS011;5006;41.828;23.478;2023-03-01T04:34:11;1.17;;;0.95;;
9934;SDS011;5006;41.828;23.478;2023-03-01T04:35:17;0.80;;;0.80;;
9934;SDS011;5006;41.828;23.478;2023-03-01T04:36:24;1.98;;;0.90;;
9934;SDS011;5006;41.828;23.478;2023-03-01T04:37:31;1.92;;;1.15;;
9934;SDS011;5006;41.828;23.478;2023-03-01T04:38:37;1.00;;;0.90;;
9934;SDS011;5006;41.828;23.478;2023-03-01T04:39:42;0.82;;;0.82;;
9934;SDS011;5006;41.828;23.478;2023-03-01T04:40:49;0.88;;;0.88;;
9934;SDS011;5006;41.828;23.478;2023-03-01T04:41:55;1.15;;;1.05;;
9934;SDS011;5006;41.828;23.478;2023-03-01T04:43:00;1.33;;;1.00;;
9934;SDS011;5006;41.828;23.478;2023-03-01T04:44:06;1.00;;;0.90;;
9934;SDS011;5006;41.828;23.478;2023-03-01T04:45:13;0.80;;;0.80;;
9934;SDS011;5006;41.828;23.478;2023-03-01T04:46:19;0.80;;;0.75;;
9934;SDS011;5006;41.828;23.478;2023-03-01T04:47:24;0.80;;;0.80;;
9934;SDS011;5006;41.828;23.478;2023-03-01T04:48:31;0.90;;;0.90;;
9934;SDS011;5006;41.828;23.478;2023-03-01T04:49:36;0.70;;;0.70;;
9934;SDS011;5006;41.828;23.478;2023-03-01T04:50:42;1.08;;;0.90;;
9934;SDS011;5006;41.828;23.478;2023-03-01T04:51:47;0.82;;;0.82;;
9934;SDS011;5006;41.828;23.478;2023-03-01T04:52:53;0.90;;;0.90;;
9934;SDS011;5006;41.828;23.478;2023-03-01T04:53:58;0.90;;;0.90;;
9934;SDS011;5006;41.828;23.478;2023-03-01T04:55:04;1.25;;;1.10;;
9934;SDS011;5006;41.828;23.478;2023-03-01T04:56:10;1.05;;;0.95;;
9934;SDS011;5006;41.828;23.478;2023-03-01T04:57:17;3.22;;;1.10;;
9934;SDS011;5006;41.828;23.478;2023-03-01T04:58:22;0.90;;;0.90;;
9934;SDS011;5006;41.828;23.478;2023-03-01T04:59:27;1.20;;;1.10;;
9934;SDS011;5006;41.828;23.478;2023-03-01T05:00:33;1.27;;;1.17;;
9934;SDS011;5006;41.828;23.478;2023-03-01T05:01:38;1.73;;;1.63;;
9934;SDS011;5006;41.828;23.478;2023-03-01T05:02:43;2.20;;;2.10;;
9934;SDS011;5006;41.828;23.478;2023-03-01T05:03:50;1.50;;;1.40;;
9934;SDS011;5006;41.828;23.478;2023-03-01T05:04:56;1.55;;;1.45;;
9934;SDS011;5006;41.828;23.478;2023-03-01T05:06:01;2.25;;;2.05;;
9934;SDS011;5006;41.828;23.478;2023-03-01T05:07:08;2.00;;;1.90;;
9934;SDS011;5006;41.828;23.478;2023-03-01T05:08:13;1.80;;;1.70;;
9934;SDS011;5006;41.828;23.478;2023-03-01T05:09:22;2.30;;;2.10;;
9934;SDS011;5006;41.828;23.478;2023-03-01T05:10:27;2.60;;;2.40;;
9934;SDS011;5006;41.828;23.478;2023-03-01T05:11:34;1.55;;;1.45;;
9934;SDS011;5006;41.828;23.478;2023-03-01T05:12:39;2.00;;;1.48;;
9934;SDS011;5006;41.828;23.478;2023-03-01T05:13:45;1.30;;;1.20;;
9934;SDS011;5006;41.828;23.478;2023-03-01T05:14:51;1.30;;;1.20;;
9934;SDS011;5006;41.828;23.478;2023-03-01T05:15:56;1.42;;;1.33;;
9934;SDS011;5006;41.828;23.478;2023-03-01T05:17:03;1.05;;;1.05;;
9934;SDS011;5006;41.828;23.478;2023-03-01T05:18:08;1.02;;;1.02;;
9934;SDS011;5006;41.828;23.478;2023-03-01T05:19:16;1.30;;;1.20;;
9934;SDS011;5006;41.828;23.478;2023-03-01T05:20:26;1.15;;;1.08;;
9934;SDS011;5006;41.828;23.478;2023-03-01T05:21:33;1.40;;;1.30;;
9934;SDS011;5006;41.828;23.478;2023-03-01T05:22:37;1.40;;;1.27;;
9934;SDS011;5006;41.828;23.478;2023-03-01T05:23:44;1.30;;;1.10;;
9934;SDS011;5006;41.828;23.478;2023-03-01T05:24:49;0.90;;;0.90;;
9934;SDS011;5006;41.828;23.478;2023-03-01T05:25:56;1.25;;;1.13;;
9934;SDS011;5006;41.828;23.478;2023-03-01T05:27:02;3.60;;;1.58;;
9934;SDS011;5006;41.828;23.478;2023-03-01T05:28:09;1.10;;;1.00;;
9934;SDS011;5006;41.828;23.478;2023-03-01T05:29:16;1.90;;;0.80;;
9934;SDS011;5006;41.828;23.478;2023-03-01T05:30:22;1.17;;;1.08;;
9934;SDS011;5006;41.828;23.478;2023-03-01T05:31:28;0.82;;;0.82;;
9934;SDS011;5006;41.828;23.478;2023-03-01T05:32:34;1.10;;;0.80;;
9934;SDS011;5006;41.828;23.478;2023-03-01T05:33:40;0.70;;;0.70;;
9934;SDS011;5006;41.828;23.478;2023-03-01T05:34:46;1.00;;;0.90;;
9934;SDS011;5006;41.828;23.478;2023-03-01T05:35:53;1.08;;;0.80;;
9934;SDS011;5006;41.828;23.478;2023-03-01T05:36:57;0.93;;;0.82;;
9934;SDS011;5006;41.828;23.478;2023-03-01T05:38:04;0.70;;;0.70;;
9934;SDS011;5006;41.828;23.478;2023-03-01T05:39:08;1.10;;;1.00;;
9934;SDS011;5006;41.828;23.478;2023-03-01T05:40:14;1.27;;;1.17;;
9934;SDS011;5006;41.828;23.478;2023-03-01T05:41:20;1.25;;;1.15;;
9934;SDS011;5006;41.828;23.478;2023-03-01T05:42:27;1.50;;;1.40;;
9934;SDS011;5006;41.828;23.478;2023-03-01T05:43:31;1.35;;;1.13;;
9934;SDS011;5006;41.828;23.478;2023-03-01T05:44:38;1.58;;;1.40;;
9934;SDS011;5006;41.828;23.478;2023-03-01T05:45:43;1.80;;;0.90;;
9934;SDS011;5006;41.828;23.478;2023-03-01T05:46:50;1.27;;;0.80;;
9934;SDS011;5006;41.828;23.478;2023-03-01T05:47:55;1.70;;;0.80;;
9934;SDS011;5006;41.828;23.478;2023-03-01T05:49:00;0.77;;;0.77;;
9934;SDS011;5006;41.828;23.478;2023-03-01T05:50:08;1.23;;;0.80;;
9934;SDS011;5006;41.828;23.478;2023-03-01T05:51:15;6.30;;;4.25;;
9934;SDS011;5006;41.828;23.478;2023-03-01T05:52:21;3.13;;;2.83;;
9934;SDS011;5006;41.828;23.478;2023-03-01T05:53:26;3.20;;;2.90;;
9934;SDS011;5006;41.828;23.478;2023-03-01T05:54:31;1.52;;;1.30;;
9934;SDS011;5006;41.828;23.478;2023-03-01T05:55:36;1.20;;;1.10;;
9934;SDS011;5006;41.828;23.478;2023-03-01T05:56:43;1.80;;;1.70;;
9934;SDS011;5006;41.828;23.478;2023-03-01T05:57:47;1.40;;;1.30;;
9934;SDS011;5006;41.828;23.478;2023-03-01T05:58:55;1.20;;;1.10;;
9934;SDS011;5006;41.828;23.478;2023-03-01T05:59:59;1.10;;;1.02;;
9934;SDS011;5006;41.828;23.478;2023-03-01T06:01:05;2.55;;;2.35;;
9934;SDS011;5006;41.828;23.478;2023-03-01T06:02:09;2.65;;;2.45;;
9934;SDS011;5006;41.828;23.478;2023-03-01T06:03:16;2.40;;;2.20;;
9934;SDS011;5006;41.828;23.478;2023-03-01T06:04:22;2.63;;;2.13;;
9934;SDS011;5006;41.828;23.478;2023-03-01T06:05:30;3.03;;;1.90;;
9934;SDS011;5006;41.828;23.478;2023-03-01T06:06:35;2.20;;;2.00;;
9934;SDS011;5006;41.828;23.478;2023-03-01T06:07:41;2.15;;;1.95;;
9934;SDS011;5006;41.828;23.478;2023-03-01T06:08:48;1.45;;;1.33;;
9934;SDS011;5006;41.828;23.478;2023-03-01T06:09:52;2.20;;;1.10;;
9934;SDS011;5006;41.828;23.478;2023-03-01T06:10:58;0.90;;;0.90;;
9934;SDS011;5006;41.828;23.478;2023-03-01T06:12:03;1.00;;;1.00;;
9934;SDS011;5006;41.828;23.478;2023-03-01T06:13:09;0.80;;;0.80;;
9934;SDS011;5006;41.828;23.478;2023-03-01T06:14:15;1.08;;;0.80;;
9934;SDS011;5006;41.828;23.478;2023-03-01T06:15:21;1.83;;;1.30;;
9934;SDS011;5006;41.828;23.478;2023-03-01T06:16:26;1.50;;;1.40;;
9934;SDS011;5006;41.828;23.478;2023-03-01T06:17:32;1.88;;;1.67;;
9934;SDS011;5006;41.828;23.478;2023-03-01T06:18:41;3.45;;;2.78;;
9934;SDS011;5006;41.828;23.478;2023-03-01T06:19:47;8.80;;;7.70;;
9934;SDS011;5006;41.828;23.478;2023-03-01T06:20:56;9.02;;;7.82;;
9934;SDS011;5006;41.828;23.478;2023-03-01T06:22:01;7.13;;;5.80;;
9934;SDS011;5006;41.828;23.478;2023-03-01T06:23:06;3.90;;;3.50;;
9934;SDS011;5006;41.828;23.478;2023-03-01T06:24:12;3.83;;;3.40;;
9934;SDS011;5006;41.828;23.478;2023-03-01T06:25:18;3.10;;;2.80;;
9934;SDS011;5006;41.828;23.478;2023-03-01T06:26:26;2.42;;;2.22;;
9934;SDS011;5006;41.828;23.478;2023-03-01T06:27:30;2.35;;;2.08;;
9934;SDS011;5006;41.828;23.478;2023-03-01T06:28:36;2.25;;;2.05;;
9934;SDS011;5006;41.828;23.478;2023-03-01T06:29:42;2.35;;;2.15;;
9934;SDS011;5006;41.828;23.478;2023-03-01T06:30:47;1.80;;;1.70;;
9934;SDS011;5006;41.828;23.478;2023-03-01T06:31:53;4.20;;;3.75;;
9934;SDS011;5006;41.828;23.478;2023-03-01T06:32:58;2.55;;;2.35;;
9934;SDS011;5006;41.828;23.478;2023-03-01T06:34:05;2.20;;;2.00;;
9934;SDS011;5006;41.828;23.478;2023-03-01T06:35:10;2.38;;;2.00;;
9934;SDS011;5006;41.828;23.478;2023-03-01T06:36:19;30.52;;;20.88;;
9934;SDS011;5006;41.828;23.478;2023-03-01T06:37:26;61.90;;;43.38;;
9934;SDS011;5006;41.828;23.478;2023-03-01T06:38:31;102.00;;;71.75;;
9934;SDS011;5006;41.828;23.478;2023-03-01T06:39:35;91.03;;;65.70;;
9934;SDS011;5006;41.828;23.478;2023-03-01T06:40:42;89.43;;;64.75;;
9934;SDS011;5006;41.828;23.478;2023-03-01T06:41:47;82.55;;;63.15;;
9934;SDS011;5006;41.828;23.478;2023-03-01T06:42:52;88.32;;;65.95;;
9934;SDS011;5006;41.828;23.478;2023-03-01T06:43:58;75.45;;;56.25;;
9934;SDS011;5006;41.828;23.478;2023-03-01T06:45:05;66.65;;;51.70;;
9934;SDS011;5006;41.828;23.478;2023-03-01T06:46:10;63.83;;;51.40;;
9934;SDS011;5006;41.828;23.478;2023-03-01T06:47:16;61.30;;;50.08;;
9934;SDS011;5006;41.828;23.478;2023-03-01T06:48:22;64.35;;;49.78;;
9934;SDS011;5006;41.828;23.478;2023-03-01T06:49:26;64.05;;;49.78;;
9934;SDS011;5006;41.828;23.478;2023-03-01T06:50:32;59.78;;;48.42;;
9934;SDS011;5006;41.828;23.478;2023-03-01T06:51:39;61.28;;;48.35;;